Time;durP1;ratioP1;P1;durP2;ratioP2;P2;SDS_P1;SDS_P2;PMS_P1;PMS_P2;Temp;Humidity;BMP_temperature;BMP_pressure;BME280_temperature;BME280_humidity;BME280_pressure;Samples;Min_cycle;Max_cycle;Signal;HPM_P1;HPM_P2
2022/06/12 00:01:29;;;;;;;6.60;5.00;;;;;;;16.76;83.07;100857.43;107556;1246;72421;-68
2022/06/12 00:03:58;;;;;;;5.80;5.10;;;;;;;16.77;82.38;100857.34;107679;1246;61318;-70
2022/06/12 00:06:27;;;;;;;7.00;5.40;;;;;;;16.77;82.78;100858.50;107692;1246;60125;-69
2022/06/12 00:08:56;;;;;;;6.90;5.70;;;;;;;16.78;83.40;100860.72;107756;1246;63971;-69
2022/06/12 00:11:28;;;;;;;10.00;5.80;;;;;;;16.82;83.84;100860.14;107667;1246;71515;-68
2022/06/12 00:14:02;;;;;;;9.70;6.20;;;;;;;16.85;82.73;100856.98;107732;1246;70462;-68
2022/06/12 00:16:35;;;;;;;7.70;5.60;;;;;;;16.87;83.13;100859.98;107712;1246;72502;-68
2022/06/12 00:19:04;;;;;;;6.60;5.40;;;;;;;16.90;83.08;100859.20;107575;1246;62098;-68
2022/06/12 00:21:33;;;;;;;5.80;4.70;;;;;;;16.93;82.55;100862.25;107709;1245;60280;-68
2022/06/12 00:24:09;;;;;;;5.70;4.80;;;;;;;16.84;82.69;100859.21;107732;1246;73301;-68
2022/06/12 00:26:44;;;;;;;7.20;5.10;;;;;;;16.76;83.16;100858.27;107681;1246;70447;-68
2022/06/12 00:29:17;;;;;;;5.80;4.60;;;;;;;16.68;83.48;100861.11;107536;1246;69621;-69
2022/06/12 00:31:59;;;;;;;6.80;5.60;;;;;;;16.62;83.81;100861.83;107661;1246;72908;-69
2022/06/12 00:34:33;;;;;;;6.30;5.00;;;;;;;16.59;84.03;100867.77;107595;1246;61288;-68
2022/06/12 00:37:03;;;;;;;6.10;4.70;;;;;;;16.57;84.38;100864.95;107559;1246;60530;-69
2022/06/12 00:39:32;;;;;;;6.60;4.60;;;;;;;16.58;84.26;100866.27;107396;1246;75292;-68
2022/06/12 00:42:03;;;;;;;6.70;5.80;;;;;;;16.58;84.38;100867.50;107439;1246;69938;-69
2022/06/12 00:44:40;;;;;;;7.70;5.80;;;;;;;16.54;84.23;100866.85;107449;1246;70606;-69
2022/06/12 00:47:14;;;;;;;7.90;5.50;;;;;;;16.52;84.35;100859.10;107430;1245;74343;-68
2022/06/12 00:50:09;;;;;;;8.40;5.90;;;;;;;16.58;83.98;100851.67;107409;1246;62676;-69
2022/06/12 00:52:49;;;;;;;7.80;5.40;;;;;;;16.66;83.53;100844.77;107541;1246;59523;-71
2022/06/12 00:55:43;;;;;;;8.40;6.00;;;;;;;16.71;83.37;100843.22;107474;1246;72445;-69
2022/06/12 00:58:20;;;;;;;6.80;5.30;;;;;;;16.75;83.39;100843.08;107438;1246;60861;-69
2022/06/12 01:00:50;;;;;;;7.80;5.30;;;;;;;16.81;82.82;100839.98;107564;1246;70551;-68
2022/06/12 01:03:20;;;;;;;7.00;5.20;;;;;;;16.87;83.21;100836.23;107610;1246;75340;-68
2022/06/12 01:08:39;;;;;;;5.20;4.70;;;;;;;16.95;83.36;100835.29;107390;1245;61676;-70
2022/06/12 01:11:15;;;;;;;5.70;4.60;;;;;;;16.98;83.02;100833.04;107434;1246;72949;-71
2022/06/12 01:13:46;;;;;;;9.40;5.30;;;;;;;16.89;83.30;100831.42;107442;1245;72589;-69
2022/06/12 01:16:18;;;;;;;5.80;4.80;;;;;;;16.81;83.52;100829.79;107586;1246;70469;-71
2022/06/12 01:18:52;;;;;;;6.60;5.40;;;;;;;16.68;84.26;100827.88;107417;1247;63693;-70
2022/06/12 01:21:54;;;;;;;8.10;5.70;;;;;;;16.63;84.62;100834.89;107514;1246;62166;-71
2022/06/12 01:24:57;;;;;;;6.20;4.70;;;;;;;16.69;84.07;100828.84;107591;1247;59704;-70
2022/06/12 01:27:56;;;;;;;9.70;5.60;;;;;;;16.62;83.91;100823.70;107456;1246;74879;-70
2022/06/12 01:30:39;;;;;;;6.90;5.20;;;;;;;16.61;83.88;100829.23;107437;1246;69979;-70
2022/06/12 01:33:14;;;;;;;8.60;5.70;;;;;;;16.60;83.71;100828.06;107399;1246;68144;-71
2022/06/12 01:36:12;;;;;;;6.20;5.60;;;;;;;16.62;84.23;100833.00;107446;1246;74244;-70
2022/06/12 01:38:53;;;;;;;9.40;5.90;;;;;;;16.62;83.97;100830.40;107563;1246;62266;-71
2022/06/12 01:41:43;;;;;;;10.00;5.90;;;;;;;16.63;84.08;100826.46;107512;1245;60829;-71
2022/06/12 01:44:14;;;;;;;7.80;5.60;;;;;;;16.63;85.25;100822.35;107391;1246;73166;-72
2022/06/12 01:47:08;;;;;;;7.40;5.70;;;;;;;16.71;84.71;100819.13;107547;1246;69734;-69
2022/06/12 01:50:10;;;;;;;7.70;5.90;;;;;;;16.71;84.74;100818.63;107450;1246;68174;-71
2022/06/12 01:53:06;;;;;;;10.50;6.50;;;;;;;16.73;84.83;100812.45;107551;1246;71987;-70
2022/06/12 01:55:51;;;;;;;8.70;6.20;;;;;;;16.81;85.42;100812.95;107461;1245;61392;-68
2022/06/12 01:58:45;;;;;;;7.40;6.20;;;;;;;16.89;84.96;100809.19;107444;1247;60481;-70
2022/06/12 02:01:30;;;;;;;8.20;6.70;;;;;;;16.94;85.37;100807.79;107357;1246;64397;-71
2022/06/12 02:04:24;;;;;;;7.60;6.20;;;;;;;16.99;85.49;100805.57;107436;1246;71121;-71
2022/06/12 02:07:17;;;;;;;8.00;6.40;;;;;;;17.01;85.21;100802.71;107280;1246;69086;-69
2022/06/12 02:10:11;;;;;;;7.40;6.20;;;;;;;17.01;84.77;100800.27;107483;1246;73186;-67
2022/06/12 02:15:54;;;;;;;9.10;7.20;;;;;;;17.07;84.85;100807.05;107344;1246;61230;-72
2022/06/12 02:18:50;;;;;;;8.70;7.10;;;;;;;17.07;85.01;100806.67;107482;1246;72823;-72
2022/06/12 02:22:03;;;;;;;7.30;6.00;;;;;;;17.09;85.34;100805.99;107571;1245;62139;-71
2022/06/12 02:25:04;;;;;;;9.80;6.80;;;;;;;17.10;85.41;100809.70;107510;1246;70746;-70
2022/06/12 02:27:41;;;;;;;8.70;6.80;;;;;;;17.10;86.17;100812.55;107501;1246;73423;-70
2022/06/12 02:30:17;;;;;;;9.50;7.30;;;;;;;17.12;85.26;100812.48;107565;1246;62564;-67
2022/06/12 02:33:01;;;;;;;13.80;6.50;;;;;;;17.16;85.19;100812.60;107575;1246;60409;-67
2022/06/12 02:35:52;;;;;;;9.30;7.10;;;;;;;17.19;85.01;100808.70;107541;1246;74204;-70
2022/06/12 02:38:40;;;;;;;9.10;6.40;;;;;;;17.20;85.08;100810.83;107420;1246;70352;-70
2022/06/12 02:41:22;;;;;;;8.70;7.00;;;;;;;17.23;85.08;100812.13;107537;1246;68097;-70
2022/06/12 02:44:00;;;;;;;7.40;6.50;;;;;;;17.26;85.01;100811.31;107422;1246;71985;-69
2022/06/12 02:46:40;;;;;;;8.70;6.90;;;;;;;17.28;85.10;100812.34;107500;1246;63055;-70
2022/06/12 02:49:11;;;;;;;8.60;6.30;;;;;;;17.31;84.73;100810.69;107566;1246;59622;-69
2022/06/12 02:52:00;;;;;;;11.00;7.50;;;;;;;17.37;84.54;100807.60;107451;1246;74056;-67
2022/06/12 02:54:53;;;;;;;8.70;7.10;;;;;;;17.40;84.71;100813.75;107522;1246;62052;-70
2022/06/12 02:57:30;;;;;;;10.30;7.30;;;;;;;17.43;84.64;100810.29;107613;1246;59427;-69
2022/06/12 03:00:14;;;;;;;7.20;6.30;;;;;;;17.46;84.54;100822.14;107625;1246;62502;-69
2022/06/12 03:02:56;;;;;;;7.40;6.60;;;;;;;17.52;84.67;100830.56;107619;1246;59597;-67
2022/06/12 03:05:30;;;;;;;7.90;6.80;;;;;;;17.55;84.54;100830.15;107601;1246;60535;-68
2022/06/12 03:08:15;;;;;;;10.20;7.20;;;;;;;17.58;84.38;100832.20;107608;1246;64672;-68
2022/06/12 03:10:53;;;;;;;9.00;6.90;;;;;;;17.60;84.43;100836.50;107612;1246;69802;-67
2022/06/12 03:13:25;;;;;;;9.00;7.40;;;;;;;17.62;84.28;100841.20;107455;1246;68723;-67
2022/06/12 03:16:16;;;;;;;9.40;6.80;;;;;;;17.64;84.20;100841.03;107531;1246;73230;-68
2022/06/12 03:18:56;;;;;;;10.00;6.50;;;;;;;17.59;84.90;100844.82;107481;1246;59646;-66
2022/06/12 03:21:39;;;;;;;7.90;7.00;;;;;;;17.62;84.74;100846.30;107402;1246;59450;-65
2022/06/12 03:24:36;;;;;;;10.50;7.00;;;;;;;17.69;84.32;100839.84;107379;1245;63260;-66
2022/06/12 03:27:53;;;;;;;9.00;7.30;;;;;;;17.76;84.05;100831.03;107529;1246;61658;-68
2022/06/12 03:30:31;;;;;;;11.00;7.10;;;;;;;17.80;84.03;100830.23;107384;1246;69004;-68
2022/06/12 03:33:36;;;;;;;9.30;7.00;;;;;;;17.81;84.00;100828.80;107497;1246;63104;-68
2022/06/12 03:36:18;;;;;;;9.50;7.50;;;;;;;17.82;84.20;100833.95;107212;1246;62455;-67
2022/06/12 03:38:59;;;;;;;8.70;6.80;;;;;;;17.88;83.94;100837.91;107371;1246;59564;-67
2022/06/12 03:41:33;;;;;;;10.40;6.70;;;;;;;17.93;83.65;100838.98;107379;1246;63843;-67
2022/06/12 03:44:38;;;;;;;10.10;7.30;;;;;;;17.96;83.71;100837.29;107420;1246;61454;-68
2022/06/12 03:47:29;;;;;;;9.10;6.70;;;;;;;17.98;83.70;100837.04;107470;1246;70015;-68
2022/06/12 03:50:44;;;;;;;8.90;6.90;;;;;;;18.02;83.75;100835.09;107316;1246;73428;-68
2022/06/12 03:53:27;;;;;;;8.90;7.30;;;;;;;18.07;83.59;100829.32;107370;1246;59595;-69
2022/06/12 03:59:05;;;;;;;7.50;6.70;;;;;;;18.14;83.09;100827.30;107396;1246;63676;-70
2022/06/12 04:01:34;;;;;;;8.40;7.00;;;;;;;18.17;82.79;100827.52;107510;1246;70930;-67
2022/06/12 04:04:04;;;;;;;7.70;6.10;;;;;;;18.18;82.78;100829.68;107574;1246;59977;-69
2022/06/12 04:06:34;;;;;;;8.10;6.70;;;;;;;18.21;82.77;100826.95;107445;1246;62483;-69
2022/06/12 04:09:12;;;;;;;8.20;7.30;;;;;;;18.22;82.72;100824.20;107442;1245;61764;-69
2022/06/12 04:11:48;;;;;;;7.80;6.00;;;;;;;18.20;82.79;100821.23;107477;1246;59547;-67
2022/06/12 04:14:20;;;;;;;10.50;8.00;;;;;;;18.22;82.52;100817.72;107286;1246;74450;-71
2022/06/12 04:16:55;;;;;;;12.30;7.80;;;;;;;18.24;82.42;100817.75;107664;1246;61214;-67
2022/06/12 04:19:26;;;;;;;9.00;7.30;;;;;;;18.29;82.45;100813.64;107879;1246;69701;-66
2022/06/12 04:21:54;;;;;;;8.50;7.40;;;;;;;18.30;82.54;100813.72;107736;1246;74435;-68
2022/06/12 04:24:30;;;;;;;8.80;7.10;;;;;;;18.34;82.35;100809.98;107840;1246;62571;-71
2022/06/12 04:27:12;;;;;;;8.20;7.00;;;;;;;18.37;82.13;100804.30;107641;1247;59007;-70
2022/06/12 04:29:55;;;;;;;10.60;7.50;;;;;;;18.46;82.17;100801.81;107669;1246;74502;-68
2022/06/12 04:32:27;;;;;;;9.60;7.30;;;;;;;18.52;82.08;100798.86;107593;1246;71842;-71
2022/06/12 04:34:56;;;;;;;9.40;6.80;;;;;;;18.55;81.68;100802.48;107629;1246;70308;-68
2022/06/12 04:37:31;;;;;;;10.90;6.80;;;;;;;18.60;81.47;100810.16;107531;1246;65039;-67
2022/06/12 04:40:04;;;;;;;10.20;7.30;;;;;;;18.66;81.54;100817.67;107439;1246;59610;-66
2022/06/12 04:42:33;;;;;;;9.10;7.30;;;;;;;18.71;81.20;100817.20;107526;1246;60337;-68
2022/06/12 04:45:05;;;;;;;8.00;6.70;;;;;;;18.78;81.18;100816.80;107479;1246;64373;-69
2022/06/12 04:47:34;;;;;;;7.80;7.00;;;;;;;18.92;80.88;100822.42;107520;1246;62650;-68
2022/06/12 04:50:04;;;;;;;9.30;7.30;;;;;;;18.97;80.64;100813.36;107479;1246;70955;-67
2022/06/12 04:52:34;;;;;;;9.80;7.20;;;;;;;19.01;80.57;100815.39;106909;1246;789691;-66
2022/06/12 04:55:03;;;;;;;9.00;8.00;;;;;;;19.08;80.20;100824.24;107462;1246;62838;-67
2022/06/12 04:57:33;;;;;;;10.40;7.50;;;;;;;19.14;80.09;100825.30;107626;1246;58448;-67
2022/06/12 05:00:04;;;;;;;8.00;6.80;;;;;;;19.18;79.81;100818.16;107393;1245;74742;-70
2022/06/12 05:02:33;;;;;;;8.30;6.90;;;;;;;19.20;79.95;100822.23;107235;1248;61858;-70
2022/06/12 05:05:02;;;;;;;8.80;7.40;;;;;;;19.25;79.64;100823.75;107514;1246;70592;-68
2022/06/12 05:07:31;;;;;;;8.60;7.10;;;;;;;19.24;79.81;100827.99;107409;1245;73963;-67
2022/06/12 05:10:00;;;;;;;9.00;7.40;;;;;;;19.29;79.38;100825.95;107555;1245;62487;-67
2022/06/12 05:12:28;;;;;;;7.70;6.70;;;;;;;19.36;79.43;100827.41;107668;1246;60924;-67
2022/06/12 05:14:57;;;;;;;9.40;7.30;;;;;;;19.44;79.07;100830.08;107599;1247;66011;-66
2022/06/12 05:17:27;;;;;;;10.70;7.50;;;;;;;19.43;79.08;100840.98;107685;1246;61525;-67
2022/06/12 05:19:56;;;;;;;10.90;7.50;;;;;;;19.44;79.13;100843.83;107653;1245;70666;-68
2022/06/12 05:22:25;;;;;;;8.30;6.90;;;;;;;19.51;78.91;100854.20;107656;1246;74034;-73
2022/06/12 05:24:54;;;;;;;9.70;7.40;;;;;;;19.55;78.84;100862.45;107640;1246;59619;-68
2022/06/12 05:27:24;;;;;;;8.30;6.80;;;;;;;19.66;78.52;100871.55;107684;1246;57831;-66
2022/06/12 05:29:53;;;;;;;7.90;6.90;;;;;;;19.69;78.52;100880.88;107479;1247;63797;-68
2022/06/12 05:32:22;;;;;;;8.00;6.50;;;;;;;19.67;78.39;100888.20;107628;1246;61677;-66
2022/06/12 05:34:53;;;;;;;8.20;6.90;;;;;;;19.76;78.31;100893.71;107567;1247;70353;-68
2022/06/12 05:37:22;;;;;;;7.70;6.80;;;;;;;19.90;77.72;100888.00;107680;1246;72917;-70
2022/06/12 05:39:51;;;;;;;8.30;7.40;;;;;;;19.95;77.39;100889.89;107684;1245;63389;-66
2022/06/12 05:42:21;;;;;;;10.50;7.00;;;;;;;19.99;77.58;100891.46;107588;1246;62108;-68
2022/06/12 05:44:50;;;;;;;9.50;7.00;;;;;;;20.07;76.96;100890.38;107688;1245;73909;-69
2022/06/12 05:47:19;;;;;;;8.30;6.90;;;;;;;20.00;77.25;100895.02;107648;1246;72904;-69
2022/06/12 05:49:48;;;;;;;10.50;6.80;;;;;;;19.95;76.98;100892.60;107587;1246;69804;-67
2022/06/12 05:52:17;;;;;;;7.70;5.90;;;;;;;19.98;77.05;100897.20;107576;1246;63719;-73
2022/06/12 05:54:45;;;;;;;8.70;6.60;;;;;;;19.90;77.44;100901.41;107617;1245;62235;-70
2022/06/12 05:57:14;;;;;;;9.50;7.30;;;;;;;19.78;78.08;100908.41;107637;1246;61663;-69
2022/06/12 05:59:43;;;;;;;9.80;7.00;;;;;;;19.84;77.72;100908.01;107613;1246;63651;-67
2022/06/12 06:02:12;;;;;;;8.20;6.30;;;;;;;19.96;77.36;100907.09;107538;1246;61697;-68
2022/06/12 06:04:41;;;;;;;7.60;6.50;;;;;;;20.06;77.16;100912.02;107688;1246;59896;-68
2022/06/12 06:07:11;;;;;;;10.20;7.20;;;;;;;20.17;76.58;100912.06;107604;1246;63653;-72
2022/06/12 06:09:40;;;;;;;9.40;6.50;;;;;;;20.27;76.21;100917.25;107783;1246;62108;-80
2022/06/12 06:12:09;;;;;;;7.40;6.40;;;;;;;20.35;76.12;100912.91;107586;1246;61732;-67
2022/06/12 06:14:38;;;;;;;7.90;7.10;;;;;;;20.44;75.47;100919.34;107692;1246;63822;-64
2022/06/12 06:17:07;;;;;;;8.10;7.30;;;;;;;20.48;75.57;100914.67;107671;1246;71428;-67
2022/06/12 06:19:36;;;;;;;9.20;7.70;;;;;;;20.50;75.75;100914.27;107488;1247;71429;-64
2022/06/12 06:22:05;;;;;;;9.90;6.70;;;;;;;20.60;75.68;100914.34;107689;1245;73698;-66
2022/06/12 06:24:34;;;;;;;8.60;6.70;;;;;;;20.81;75.32;100917.22;107594;1246;63312;-69
2022/06/12 06:27:03;;;;;;;8.10;6.20;;;;;;;20.86;74.93;100917.06;107564;1246;61685;-65
2022/06/12 06:29:32;;;;;;;7.60;6.40;;;;;;;20.86;74.39;100912.67;107629;1246;74950;-64
2022/06/12 06:32:00;;;;;;;8.70;6.80;;;;;;;20.84;74.85;100917.39;107441;1246;72518;-66
2022/06/12 06:34:29;;;;;;;8.70;7.00;;;;;;;20.85;74.87;100922.87;107607;1246;59662;-68
2022/06/12 06:36:59;;;;;;;10.40;7.00;;;;;;;20.69;75.48;100916.11;107354;1246;73679;-66
2022/06/12 06:39:28;;;;;;;8.30;7.20;;;;;;;20.73;75.71;100916.15;107408;1246;62294;-67
2022/06/12 06:41:57;;;;;;;9.10;6.80;;;;;;;20.87;75.42;100910.23;107357;1246;58672;-67
2022/06/12 06:47:14;;;;;;;9.10;7.10;;;;;;;21.19;75.14;100908.45;107506;1246;72186;-67
2022/06/12 06:49:43;;;;;;;10.90;7.20;;;;;;;21.31;74.60;100915.58;107391;1246;70945;-70
2022/06/12 06:52:12;;;;;;;8.80;7.00;;;;;;;21.36;74.09;100920.02;107327;1247;74164;-67
2022/06/12 06:54:41;;;;;;;8.00;6.60;;;;;;;21.43;73.68;100923.59;107376;1246;62538;-69
2022/06/12 06:57:10;;;;;;;11.10;7.50;;;;;;;21.45;73.73;100923.50;107353;1246;61842;-69
2022/06/12 06:59:40;;;;;;;8.60;7.40;;;;;;;21.40;73.78;100930.93;107386;1245;64431;-70
2022/06/12 07:02:11;;;;;;;9.10;7.10;;;;;;;21.37;73.89;100929.39;107384;1246;60823;-69
2022/06/12 07:04:40;;;;;;;8.60;6.90;;;;;;;21.28;74.19;100941.00;107319;1246;59256;-70
2022/06/12 07:07:10;;;;;;;9.30;7.60;;;;;;;21.25;74.93;100932.86;107273;1246;71573;-70
2022/06/12 07:09:41;;;;;;;10.40;6.90;;;;;;;21.05;76.21;100935.16;107162;1247;59664;-67
2022/06/12 07:12:10;;;;;;;10.70;8.10;;;;;;;20.65;79.12;100938.60;107438;1246;61296;-68
2022/06/12 07:14:39;;;;;;;9.50;8.10;;;;;;;20.02;82.14;100931.17;107401;1246;74954;-67
2022/06/12 07:17:08;;;;;;;10.50;9.50;;;;;;;19.64;83.99;100928.90;107683;1247;72504;-68
2022/06/12 07:19:38;;;;;;;12.70;9.80;;;;;;;19.39;85.34;100929.32;107642;1246;71153;-70
2022/06/12 07:22:07;;;;;;;11.70;10.10;;;;;;;19.27;86.55;100925.66;107607;1246;62370;-73
2022/06/12 07:24:36;;;;;;;11.90;10.00;;;;;;;19.23;87.11;100927.14;107623;1246;59062;-70
2022/06/12 07:27:06;;;;;;;12.10;10.50;;;;;;;19.20;86.95;100929.91;107537;1246;59489;-70
2022/06/12 07:29:35;;;;;;;13.60;9.80;;;;;;;19.23;87.03;100935.73;107734;1246;65492;-67
2022/06/12 07:32:05;;;;;;;12.30;10.00;;;;;;;19.27;87.34;100932.27;107577;1246;72042;-65
2022/06/12 07:34:34;;;;;;;12.00;10.70;;;;;;;19.31;87.58;100933.84;107620;1246;60470;-66
2022/06/12 07:37:06;;;;;;;11.30;10.00;;;;;;;19.44;88.31;100936.18;107614;1246;64202;-68
2022/06/12 07:39:35;;;;;;;12.40;10.40;;;;;;;19.68;86.72;100936.83;107537;1246;63006;-68
2022/06/12 07:42:05;;;;;;;11.90;10.40;;;;;;;19.77;86.32;100938.30;107538;1246;59597;-69
2022/06/12 07:44:35;;;;;;;10.90;9.70;;;;;;;19.96;85.27;100938.20;107624;1247;63805;-64
2022/06/12 07:47:05;;;;;;;10.80;9.40;;;;;;;20.14;85.02;100940.08;107658;1244;70807;-69
2022/06/12 07:49:35;;;;;;;11.50;9.10;;;;;;;20.45;83.77;100941.57;107677;1246;61317;-67
2022/06/12 07:52:08;;;;;;;10.30;9.00;;;;;;;20.82;81.75;100942.73;107820;1244;63830;-67
2022/06/12 07:54:37;;;;;;;13.70;8.80;;;;;;;21.10;80.64;100937.98;107701;1245;59592;-68
2022/06/12 07:57:07;;;;;;;9.90;8.30;;;;;;;21.33;79.02;100936.02;107721;1247;61774;-67
2022/06/12 07:59:37;;;;;;;9.30;8.30;;;;;;;21.56;77.62;100935.63;107793;1245;75129;-69
2022/06/12 08:02:08;;;;;;;10.50;8.90;;;;;;;21.72;76.40;100940.73;107856;1246;73077;-71
2022/06/12 08:04:36;;;;;;;10.00;9.00;;;;;;;21.95;75.83;100929.75;107529;1247;69994;-70
2022/06/12 08:07:05;;;;;;;8.90;7.80;;;;;;;22.22;75.84;100936.52;107709;1246;63785;-71
2022/06/12 08:09:34;;;;;;;9.00;7.40;;;;;;;22.63;73.82;100938.05;107406;1246;58985;-73
2022/06/12 08:12:04;;;;;;;8.70;7.90;;;;;;;22.79;71.11;100936.70;107670;1246;59589;-72
2022/06/12 08:14:33;;;;;;;9.30;8.10;;;;;;;22.79;71.17;100934.52;107717;1246;62992;-73
2022/06/12 08:17:03;;;;;;;9.30;7.80;;;;;;;22.84;70.36;100934.05;108147;1246;61696;-67
2022/06/12 08:22:20;;;;;;;10.50;7.90;;;;;;;23.06;69.34;100945.42;107570;1246;72918;-71
2022/06/12 08:24:49;;;;;;;11.40;8.30;;;;;;;23.11;69.79;100935.23;107562;1246;59660;-76
2022/06/12 08:27:18;;;;;;;8.80;7.90;;;;;;;23.22;68.66;100933.23;107684;1246;59595;-75
2022/06/12 08:29:48;;;;;;;8.50;6.90;;;;;;;23.21;67.90;100929.73;107631;1246;63766;-70
2022/06/12 08:32:21;;;;;;;8.90;8.00;;;;;;;23.24;67.93;100937.40;107536;1246;60759;-72
2022/06/12 08:34:56;;;;;;;9.80;8.40;;;;;;;23.34;68.17;100936.56;107718;1245;70584;-72
2022/06/12 08:37:32;;;;;;;8.80;8.00;;;;;;;23.49;68.13;100936.02;107671;1246;73281;-73
2022/06/12 08:40:04;;;;;;;8.80;7.80;;;;;;;23.49;66.99;100939.80;107556;1246;62811;-75
2022/06/12 08:42:44;;;;;;;9.80;7.80;;;;;;;23.63;66.53;100932.11;107719;1246;60332;-74
2022/06/12 08:45:29;;;;;;;10.00;7.80;;;;;;;23.82;65.74;100930.16;107678;1247;74208;-75
2022/06/12 08:48:16;;;;;;;10.10;7.70;;;;;;;23.97;65.58;100931.02;107612;1246;61256;-70
2022/06/12 08:51:12;;;;;;;9.30;7.50;;;;;;;24.16;64.36;100929.52;107608;1246;68864;-69
2022/06/12 08:54:10;;;;;;;9.10;7.20;;;;;;;24.31;63.24;100924.70;107680;1246;73683;-75
2022/06/12 08:57:04;;;;;;;8.30;7.00;;;;;;;24.29;64.05;100920.39;107677;1247;59610;-71
2022/06/12 08:59:59;;;;;;;13.80;11.40;;;;;;;24.52;63.47;100916.31;107813;1247;59026;-72
2022/06/12 09:02:37;;;;;;;9.30;7.90;;;;;;;24.70;61.60;100916.20;107747;1245;74945;-69
2022/06/12 09:05:13;;;;;;;8.20;7.40;;;;;;;24.75;61.60;100906.65;107823;1246;62029;-67
2022/06/12 09:07:58;;;;;;;7.90;7.10;;;;;;;24.68;62.26;100911.23;107463;1247;69490;-68
2022/06/12 09:10:59;;;;;;;11.30;7.30;;;;;;;24.69;62.41;100918.74;107910;1244;73449;-67
2022/06/12 09:14:06;;;;;;;9.60;8.00;;;;;;;24.80;62.26;100918.63;107886;1244;61331;-69
2022/06/12 09:17:38;;;;;;;11.90;7.80;;;;;;;24.89;60.94;100926.07;107519;1247;57902;-75
2022/06/12 09:20:34;;;;;;;9.00;6.70;;;;;;;24.75;61.06;100912.27;107171;1253;63017;-72
2022/06/12 09:23:50;;;;;;;8.40;7.50;;;;;;;24.98;60.54;100912.21;107212;1251;71445;-72
2022/06/12 09:26:45;;;;;;;9.20;7.50;;;;;;;25.12;60.52;100905.54;107319;1246;70138;-73
2022/06/12 09:29:42;;;;;;;7.80;6.80;;;;;;;25.19;59.76;100907.45;107653;1244;75290;-73
2022/06/12 09:33:03;;;;;;;9.10;6.80;;;;;;;25.24;59.69;100901.66;107858;1246;59644;-74
2022/06/12 09:36:05;;;;;;;7.80;7.00;;;;;;;25.43;58.81;100902.92;107605;1246;58484;-75
2022/06/12 09:38:55;;;;;;;7.70;7.00;;;;;;;25.52;58.52;100906.35;107479;1247;74455;-73
2022/06/12 09:41:58;;;;;;;7.70;6.40;;;;;;;25.68;56.69;100897.39;107562;1246;72509;-72
2022/06/12 09:44:39;;;;;;;7.70;6.80;;;;;;;25.65;58.08;100905.14;107633;1247;59890;-74
2022/06/12 09:47:38;;;;;;;8.30;6.70;;;;;;;25.59;58.13;100897.47;107639;1247;62535;-73
2022/06/12 09:50:26;;;;;;;8.60;6.70;;;;;;;25.42;58.12;100893.05;107649;1246;59603;-74
2022/06/12 09:53:59;;;;;;;9.40;6.90;;;;;;;25.53;57.59;100890.64;107626;1247;59542;-74
2022/06/12 09:56:38;;;;;;;7.40;6.30;;;;;;;25.80;56.78;100890.75;107577;1246;73768;-75
2022/06/12 09:59:24;;;;;;;7.60;6.50;;;;;;;25.74;56.88;100887.84;107673;1246;61301;-72
2022/06/12 10:02:00;;;;;;;6.60;5.80;;;;;;;25.94;56.80;100882.30;107557;1247;70607;-76
2022/06/12 10:04:51;;;;;;;9.60;7.20;;;;;;;26.10;54.96;100881.50;107754;1245;74492;-69
2022/06/12 10:07:34;;;;;;;8.60;6.20;;;;;;;26.14;54.18;100873.18;107594;1246;60994;-75
2022/06/12 10:10:28;;;;;;;6.80;6.00;;;;;;;26.31;53.46;100874.00;107562;1247;59042;-67
2022/06/12 10:13:04;;;;;;;9.30;5.90;;;;;;;26.13;51.53;100888.48;107728;1246;73973;-69
2022/06/12 10:15:41;;;;;;;8.80;6.30;;;;;;;26.06;51.48;100885.13;107754;1246;61315;-68
2022/06/12 10:18:21;;;;;;;8.10;6.50;;;;;;;26.09;51.61;100882.60;107515;1247;69941;-68
2022/06/12 10:21:00;;;;;;;8.10;6.10;;;;;;;26.24;51.66;100878.90;107634;1246;62891;-64
2022/06/12 10:23:30;;;;;;;7.70;6.60;;;;;;;26.49;52.24;100875.33;107757;1245;59071;-65
2022/06/12 10:26:08;;;;;;;7.90;6.80;;;;;;;26.81;52.40;100879.65;107602;1246;60755;-66
2022/06/12 10:28:37;;;;;;;7.30;6.60;;;;;;;26.80;51.97;100872.66;107616;1246;74972;-67
2022/06/12 10:31:09;;;;;;;12.30;7.00;;;;;;;26.84;52.74;100874.77;107667;1246;72757;-64
2022/06/12 10:34:16;;;;;;;7.60;6.90;;;;;;;26.87;52.23;100875.99;107694;1247;71116;-65
2022/06/12 10:36:45;;;;;;;10.10;6.40;;;;;;;26.93;52.39;100862.77;107676;1247;74579;-76
2022/06/12 10:39:17;;;;;;;8.50;6.80;;;;;;;27.11;52.23;100859.02;107816;1247;58456;-77
2022/06/12 10:41:54;;;;;;;8.00;6.40;;;;;;;27.53;50.88;100866.31;107762;1246;58946;-72
2022/06/12 10:44:44;;;;;;;7.10;6.10;;;;;;;27.36;50.20;100860.34;107737;1247;63852;-75
2022/06/12 10:47:30;;;;;;;8.50;6.60;;;;;;;27.15;50.82;100854.21;107536;1247;60833;-75
2022/06/12 10:50:50;;;;;;;8.60;6.10;;;;;;;26.96;51.55;100853.45;107692;1246;69804;-80
2022/06/12 10:53:23;;;;;;;9.70;6.90;;;;;;;27.22;51.64;100854.81;107986;1246;62950;-85
2022/06/12 10:56:12;;;;;;;7.50;6.70;;;;;;;27.30;51.74;100847.59;108002;1246;61728;-82
2022/06/12 10:59:03;;;;;;;7.40;6.60;;;;;;;27.36;51.19;100845.77;107754;1247;58326;-75
2022/06/12 11:02:06;;;;;;;7.30;6.60;;;;;;;27.28;51.13;100840.92;107529;1247;74518;-74
2022/06/12 11:05:12;;;;;;;11.70;7.20;;;;;;;27.40;51.10;100841.33;107511;1246;73047;-75
2022/06/12 11:07:56;;;;;;;9.00;6.80;;;;;;;27.44;51.15;100847.36;107509;1247;60970;-77
2022/06/12 11:10:38;;;;;;;7.50;6.30;;;;;;;27.52;50.48;100833.52;107616;1246;63175;-81
2022/06/12 11:13:47;;;;;;;7.10;6.40;;;;;;;27.55;50.49;100829.94;107615;1247;59674;-81
2022/06/12 11:16:40;;;;;;;7.60;6.80;;;;;;;27.59;50.79;100822.40;107574;1246;60513;-79
2022/06/12 11:19:29;;;;;;;7.70;6.20;;;;;;;27.77;50.70;100827.77;107630;1246;64758;-79
2022/06/12 11:22:29;;;;;;;8.10;6.20;;;;;;;28.07;49.78;100823.27;107657;1247;61629;-76
2022/06/12 11:25:40;;;;;;;7.90;6.50;;;;;;;28.15;49.57;100826.13;107633;1247;59540;-74
2022/06/12 11:28:29;;;;;;;7.10;6.00;;;;;;;27.97;49.75;100825.67;107558;1246;73899;-79
2022/06/12 11:31:31;;;;;;;8.10;6.20;;;;;;;28.06;49.98;100819.96;107665;1247;58706;-76
2022/06/12 11:34:27;;;;;;;7.30;6.10;;;;;;;28.21;49.89;100809.52;107573;1246;57965;-77
2022/06/12 11:37:27;;;;;;;6.90;5.90;;;;;;;27.96;50.65;100804.85;107703;1246;74876;-79
2022/06/12 11:40:25;;;;;;;8.60;6.10;;;;;;;28.22;50.40;100809.52;107736;1247;62996;-79
2022/06/12 11:43:18;;;;;;;6.10;5.50;;;;;;;28.44;50.02;100805.13;107704;1246;71024;-80
2022/06/12 11:46:19;;;;;;;7.70;5.80;;;;;;;28.51;50.14;100804.82;107836;1246;74425;-81
2022/06/12 11:49:15;;;;;;;7.50;5.60;;;;;;;28.64;49.65;100798.10;107655;1246;59640;-80
2022/06/12 11:52:13;;;;;;;7.60;6.10;;;;;;;28.61;49.67;100780.29;107699;1245;61411;-82
2022/06/12 11:55:26;;;;;;;6.70;5.90;;;;;;;28.98;49.52;100780.40;107712;1247;74880;-78
2022/06/12 11:58:14;;;;;;;8.40;5.60;;;;;;;29.32;48.71;100782.69;107496;1246;71256;-85
2022/06/12 12:01:05;;;;;;;8.50;5.70;;;;;;;29.68;47.51;100774.95;107721;1247;59738;-78
2022/06/12 12:04:28;;;;;;;12.70;5.60;;;;;;;29.60;47.74;100769.95;107532;1247;63768;-81
2022/06/12 12:07:09;;;;;;;9.30;5.20;;;;;;;30.09;46.62;100762.41;107633;1247;59658;-80
2022/06/12 12:09:53;;;;;;;6.90;4.90;;;;;;;30.07;46.28;100765.11;107669;1246;60495;-79
2022/06/12 12:12:34;;;;;;;7.20;5.60;;;;;;;29.70;46.58;100760.48;107613;1246;63399;-79
2022/06/12 12:15:13;;;;;;;7.10;5.50;;;;;;;29.94;46.16;100747.45;107721;1246;71452;-80
2022/06/12 12:17:46;;;;;;;7.50;5.30;;;;;;;30.07;45.95;100755.05;107699;1246;60398;-82
2022/06/12 12:20:38;;;;;;;7.10;5.70;;;;;;;30.18;44.66;100758.20;107648;1246;63653;-85
2022/06/12 12:23:19;;;;;;;7.20;5.70;;;;;;;29.84;45.03;100764.45;107774;1247;60516;-80
2022/06/12 12:26:05;;;;;;;7.60;5.30;;;;;;;30.14;44.91;100767.74;107896;1247;60192;-79
2022/06/12 12:28:42;;;;;;;6.60;5.10;;;;;;;29.62;45.84;100763.84;107820;1246;74989;-79